createdAt,value
2023-01-01T00:04:00.394Z,201.23
2023-01-01T00:09:22.475Z,199.23
2023-01-01T00:14:28.217Z,197.52
2023-01-01T00:19:32.105Z,199.38
2023-01-01T00:24:35.988Z,205.15
2023-01-01T00:29:41.187Z,202.27
2023-01-01T00:34:45.051Z,198.50
2023-01-01T00:39:48.887Z,203.25
2023-01-01T00:44:54.117Z,198.95
2023-01-01T00:49:57.983Z,196.13
2023-01-01T00:55:01.889Z,194.93
2023-01-01T01:00:08.804Z,190.95
2023-01-01T01:05:13.985Z,190.05
2023-01-01T01:10:17.948Z,188.15
2023-01-01T01:15:23.170Z,184.93
2023-01-01T01:20:27.037Z,188.07
2023-01-01T01:25:30.885Z,188.27
2023-01-01T01:30:36.210Z,185.80
2023-01-01T01:35:40.142Z,120.80
2023-01-01T01:40:44.220Z,192.63
2023-01-01T01:45:50.045Z,196.02
2023-01-01T01:50:56.461Z,192.52
2023-01-01T01:56:02.524Z,192.40
2023-01-01T02:01:07.956Z,192.23
2023-01-01T02:06:12.417Z,189.98
2023-01-01T02:11:21.779Z,192.85
2023-01-01T02:16:31.249Z,198.10
2023-01-01T02:21:39.257Z,199.93
2023-01-01T02:26:54.697Z,198.20
2023-01-01T02:32:03.089Z,195.50
2023-01-01T02:37:09.706Z,198.98
2023-01-01T02:42:13.818Z,201.38
2023-01-01T02:47:21.024Z,203.10
2023-01-01T02:52:59.219Z,203.82
2023-01-01T02:58:28.222Z,203.85
2023-01-01T03:03:38.993Z,211.40
2023-01-01T03:08:48.192Z,207.15
2023-01-01T03:13:58.159Z,209.73
2023-01-01T03:19:14.144Z,212.68
2023-01-01T03:24:23.109Z,218.40
2023-01-01T03:29:29.603Z,218.55
2023-01-01T03:34:38.235Z,220.43
2023-01-01T03:39:47.249Z,220.32
2023-01-01T03:44:53.905Z,217.50
2023-01-01T03:49:59.743Z,218.23
2023-01-01T04:00:16.570Z,226.73
2023-01-01T04:05:22.868Z,229.35
2023-01-01T04:10:27.308Z,232.13
2023-01-01T04:15:32.152Z,234.88
2023-01-01T04:20:37.393Z,231.55
2023-01-01T04:25:41.209Z,132.83
2023-01-01T04:30:45.149Z,228.95
2023-01-01T04:35:50.444Z,216.35
2023-01-01T04:40:59.355Z,219.67
2023-01-01T04:46:04.551Z,219.75
2023-01-01T04:51:12.601Z,120.70
2023-01-01T04:56:18.314Z,223.82
2023-01-01T05:01:24.639Z,216.40
2023-01-01T05:06:30.313Z,206.43
2023-01-01T05:11:34.168Z,216.43
2023-01-01T05:16:40.105Z,217.93
2023-01-01T05:21:45.927Z,221.20
2023-01-01T05:26:49.759Z,218.98
2023-01-01T05:31:53.629Z,224.07
2023-01-01T05:36:59.119Z,222.05
2023-01-01T05:42:02.976Z,224.57
2023-01-01T05:47:06.787Z,223.05
2023-01-01T05:52:12.027Z,223.45
2023-01-01T05:57:15.920Z,226.68
2023-01-01T06:02:19.783Z,227.70
2023-01-01T06:07:25.183Z,231.85
2023-01-01T06:12:29.080Z,154.60
2023-01-01T06:17:34.812Z,236.05
2023-01-01T06:22:40.039Z,235.05
2023-01-01T06:27:43.895Z,235.70
2023-01-01T06:32:47.752Z,236.63
2023-01-01T06:37:53.037Z,239.23
2023-01-01T06:42:56.878Z,238.35
2023-01-01T06:48:00.693Z,237.07
2023-01-01T06:53:05.953Z,232.18
2023-01-01T06:58:10.028Z,233.53
2023-01-01T07:03:14.235Z,224.20
2023-01-01T07:08:19.452Z,212.57
2023-01-01T07:13:23.396Z,210.37
2023-01-01T07:18:27.296Z,204.70
2023-01-01T07:23:35.463Z,198.88
2023-01-01T07:28:39.265Z,171.63
2023-01-01T07:33:43.067Z,151.60
2023-01-01T07:38:48.247Z,147.90
2023-01-01T07:43:52.075Z,149.73
2023-01-01T07:48:56.608Z,148.77
2023-01-01T07:54:06.565Z,145.23
2023-01-01T07:59:14.379Z,137.75
2023-01-01T08:04:20.826Z,133.52
2023-01-01T08:09:26.029Z,136.43
2023-01-01T08:14:29.823Z,128.60
2023-01-01T08:19:33.648Z,121.45
2023-01-01T08:24:38.911Z,116.50
2023-01-01T08:29:42.922Z,61.67
2023-01-01T08:34:46.907Z,100.28
2023-01-01T08:39:53.160Z,90.13
2023-01-01T08:44:57.014Z,79.25
2023-01-01T08:50:00.895Z,81.85
2023-01-01T08:55:06.938Z,76.10
2023-01-01T09:05:15.040Z,76.35
2023-01-01T09:10:20.285Z,67.85
2023-01-01T09:15:24.264Z,53.10
2023-01-01T09:20:28.247Z,67.45
2023-01-01T09:25:35.139Z,61.45
2023-01-01T09:30:39.252Z,61.60
2023-01-01T09:35:44.591Z,54.85
2023-01-01T09:40:57.287Z,50.97
2023-01-01T09:46:03.027Z,51.83
2023-01-01T09:51:13.256Z,54.65
2023-01-01T09:56:21.102Z,51.40
2023-01-01T10:01:34.624Z,46.30
2023-01-01T10:06:42.580Z,47.28
2023-01-01T10:11:56.191Z,39.97
2023-01-01T10:17:03.117Z,48.72
2023-01-01T10:22:10.618Z,42.80
2023-01-01T10:27:26.039Z,37.88
2023-01-01T10:32:32.575Z,40.20
2023-01-01T10:37:37.854Z,37.28
2023-01-01T10:42:43.104Z,42.85
2023-01-01T10:48:14.871Z,39.30
2023-01-01T10:53:24.736Z,40.47
2023-01-01T10:58:36.993Z,41.67
2023-01-01T11:03:55.359Z,39.63
2023-01-01T11:09:03.268Z,40.22
2023-01-01T11:14:19.758Z,47.50
2023-01-01T11:19:25.539Z,36.20
2023-01-01T11:24:30.450Z,38.20
2023-01-01T11:29:35.769Z,32.80
2023-01-01T11:34:41.452Z,30.73
2023-01-01T11:39:46.451Z,32.10
2023-01-01T11:44:54.475Z,34.28
2023-01-01T11:50:01.380Z,33.75
2023-01-01T11:55:13.684Z,27.38
2023-01-01T12:00:19.136Z,27.73
2023-01-01T12:05:26.080Z,33.08
2023-01-01T12:10:33.771Z,31.95
2023-01-01T12:15:41.412Z,32.05
2023-01-01T12:20:48.462Z,31.20
2023-01-01T12:26:00.221Z,27.52
2023-01-01T12:31:11.598Z,31.42
2023-01-01T12:36:27.235Z,30.13
2023-01-01T12:41:35.044Z,31.98
2023-01-01T12:46:48.014Z,28.85
2023-01-01T12:51:59.707Z,25.75
2023-01-01T12:57:07.927Z,24.95
2023-01-01T13:02:16.022Z,27.35
2023-01-01T13:07:26.797Z,24.25
2023-01-01T13:12:32.933Z,26.50
2023-01-01T13:17:38.810Z,24.73
2023-01-01T13:22:43.768Z,23.48
2023-01-01T13:28:11.690Z,25.75
2023-01-01T13:33:26.052Z,26.65
2023-01-01T13:38:46.459Z,23.93
2023-01-01T13:43:51.351Z,23.17
2023-01-01T13:49:16.733Z,23.73
2023-01-01T13:54:45.911Z,26.15
2023-01-01T13:59:56.155Z,23.65
2023-01-01T14:05:04.498Z,22.02
2023-01-01T14:10:29.012Z,25.10
2023-01-01T14:15:34.486Z,23.92
2023-01-01T14:20:43.562Z,24.00
2023-01-01T14:25:48.784Z,27.45
2023-01-01T14:30:53.329Z,27.95
2023-01-01T14:36:00.438Z,28.50
2023-01-01T14:41:13.163Z,31.73
2023-01-01T14:46:19.685Z,29.80
2023-01-01T14:51:26.602Z,34.83
2023-01-01T14:56:32.200Z,36.58
2023-01-01T15:01:36.150Z,40.75
2023-01-01T15:06:43.177Z,35.65
2023-01-01T15:11:47.153Z,36.22
2023-01-01T15:17:01.655Z,40.13
2023-01-01T15:22:11.921Z,47.35
2023-01-01T15:27:23.117Z,34.88
2023-01-01T15:32:28.773Z,39.10
2023-01-01T15:37:35.693Z,36.63
2023-01-01T15:42:41.560Z,40.03
2023-01-01T15:52:55.479Z,49.50
2023-01-01T15:58:00.299Z,47.10
2023-01-01T16:03:17.581Z,48.20
2023-01-01T16:08:23.026Z,49.42
2023-01-01T16:13:27.099Z,47.03
2023-01-01T16:18:33.494Z,52.63
2023-01-01T16:23:38.711Z,54.67
2023-01-01T16:28:42.677Z,55.10
2023-01-01T16:33:49.751Z,63.60
2023-01-01T16:38:55.078Z,58.53
2023-01-01T16:43:59.227Z,56.27
2023-01-01T16:49:04.603Z,61.03
2023-01-01T16:54:09.885Z,59.72
2023-01-01T16:59:15.385Z,58.37
2023-01-01T17:04:19.388Z,56.25
2023-01-01T17:09:24.849Z,51.25
2023-01-01T17:19:32.737Z,50.85
2023-01-01T17:24:38.021Z,54.85
2023-01-01T17:29:41.815Z,63.10
2023-01-01T17:34:45.719Z,61.25
2023-01-01T17:39:51.010Z,68.78
2023-01-01T17:44:54.906Z,63.80
2023-01-01T17:49:58.843Z,70.47
2023-01-01T17:55:04.360Z,78.38
2023-01-01T18:00:10.699Z,79.03
2023-01-01T18:05:17.223Z,84.40
2023-01-01T18:10:22.484Z,84.55
2023-01-01T18:15:26.721Z,84.27
2023-01-01T18:20:30.598Z,89.25
2023-01-01T18:25:35.891Z,96.82
2023-01-01T18:30:39.735Z,62.60
2023-01-01T18:35:43.588Z,98.53
2023-01-01T18:41:04.184Z,97.80
2023-01-01T18:46:10.551Z,101.38
2023-01-01T18:51:16.342Z,106.93
2023-01-01T18:56:21.621Z,107.13
2023-01-01T19:01:25.995Z,117.67
2023-01-01T19:06:31.638Z,111.00
2023-01-01T19:11:38.577Z,110.45
2023-01-01T19:16:42.650Z,112.75
2023-01-01T19:21:51.547Z,107.57
2023-01-01T19:27:01.400Z,116.03
2023-01-01T19:32:05.676Z,110.95
2023-01-01T19:37:10.341Z,113.97
2023-01-01T19:42:15.673Z,115.97
2023-01-01T19:47:19.591Z,116.88
2023-01-01T19:52:23.519Z,127.13
2023-01-01T19:57:28.800Z,120.57
2023-01-01T20:02:45.840Z,127.63
2023-01-01T20:07:51.792Z,134.07
2023-01-01T20:12:57.129Z,127.13
2023-01-01T20:18:00.969Z,138.73
2023-01-01T20:23:04.807Z,134.43
2023-01-01T20:28:27.373Z,131.35
2023-01-01T20:33:31.318Z,138.55
2023-01-01T20:38:40.016Z,140.88
2023-01-01T20:43:45.681Z,142.13
2023-01-01T20:48:49.561Z,134.37
2023-01-01T20:53:53.462Z,139.82
2023-01-01T20:59:04.505Z,142.77
2023-01-01T21:04:16.297Z,141.43
2023-01-01T21:09:20.147Z,143.85
2023-01-01T21:14:26.720Z,99.18
2023-01-01T21:19:30.619Z,150.63
2023-01-01T21:24:37.602Z,145.70
2023-01-01T21:29:46.230Z,144.85
2023-01-01T21:34:51.283Z,149.00
2023-01-01T21:39:55.109Z,96.20
2023-01-01T21:45:01.213Z,159.52
2023-01-01T21:50:17.995Z,149.40
2023-01-01T21:55:46.585Z,161.98
2023-01-01T22:00:51.831Z,151.82
2023-01-01T22:05:59.329Z,158.73
2023-01-01T22:11:03.563Z,151.73
2023-01-01T22:16:12.587Z,149.88
2023-01-01T22:21:18.740Z,148.85
2023-01-01T22:26:24.986Z,147.63
2023-01-01T22:31:33.490Z,147.50
2023-01-01T22:36:37.911Z,153.07
2023-01-01T22:41:42.746Z,148.13
2023-01-01T22:46:48.024Z,153.02
2023-01-01T22:51:54.691Z,163.27
2023-01-01T22:56:58.563Z,167.40
2023-01-01T23:02:04.088Z,158.40
2023-01-01T23:07:14.275Z,158.15
2023-01-01T23:12:18.204Z,169.43
2023-01-01T23:17:23.423Z,170.07
2023-01-01T23:22:28.888Z,170.97
2023-01-01T23:27:32.786Z,171.25
2023-01-01T23:32:38.076Z,172.32
2023-01-01T23:37:42.116Z,171.90
2023-01-01T23:42:45.952Z,182.15
2023-01-01T23:47:51.276Z,188.90
2023-01-01T23:52:55.188Z,107.83
2023-01-01T23:57:59.054Z,190.75
